Time;durP1;ratioP1;P1;durP2;ratioP2;P2;SDS_P1;SDS_P2;PMS_P1;PMS_P2;Temp;Humidity;BMP_temperature;BMP_pressure;BME280_temperature;BME280_humidity;BME280_pressure;Samples;Min_cycle;Max_cycle;Signal;HPM_P1;HPM_P2
2023/10/02 00:01:47;;;;;;;7.60;4.10;;;14.60;99.90;;;;;;4839235;29;20117;-77
2023/10/02 00:04:16;;;;;;;7.45;3.40;;;14.50;99.90;;;;;;4860862;29;20033;-78
2023/10/02 00:06:43;;;;;;;6.45;4.00;;;14.50;99.90;;;;;;4833438;29;20034;-77
2023/10/02 00:09:09;;;;;;;6.10;3.83;;;14.50;99.90;;;;;;4861996;29;20033;-77
2023/10/02 00:11:41;;;;;;;6.95;3.53;;;14.50;99.90;;;;;;4846807;29;20169;-78
2023/10/02 00:14:21;;;;;;;6.78;3.50;;;14.40;99.90;;;;;;4847382;29;20025;-77
2023/10/02 00:17:00;;;;;;;5.60;3.60;;;14.40;99.90;;;;;;4846121;29;20030;-78
2023/10/02 00:19:44;;;;;;;5.70;3.67;;;14.40;99.90;;;;;;4839340;29;20025;-78
2023/10/02 00:22:41;;;;;;;8.00;3.75;;;14.40;99.90;;;;;;4847611;29;20057;-78
2023/10/02 00:25:17;;;;;;;8.93;4.65;;;14.50;99.90;;;;;;4842468;29;20052;-77
2023/10/02 00:27:48;;;;;;;6.10;3.33;;;14.50;99.90;;;;;;4844228;29;20040;-78
2023/10/02 00:30:15;;;;;;;5.53;2.92;;;14.60;99.90;;;;;;4847693;29;20085;-78
2023/10/02 00:32:45;;;;;;;4.43;3.10;;;14.60;99.90;;;;;;4860409;29;20040;-77
2023/10/02 00:35:11;;;;;;;4.68;3.25;;;14.60;99.90;;;;;;4845797;29;20123;-78
2023/10/02 00:37:44;;;;;;;5.25;2.97;;;14.70;99.90;;;;;;4845482;29;20715;-77
2023/10/02 00:40:20;;;;;;;5.65;3.50;;;14.70;99.90;;;;;;4845801;29;20109;-78
2023/10/02 00:42:55;;;;;;;6.70;3.17;;;14.80;99.90;;;;;;4847365;29;20049;-78
2023/10/02 00:45:24;;;;;;;5.35;2.95;;;14.80;99.90;;;;;;4859280;29;20068;-77
2023/10/02 00:47:52;;;;;;;5.47;2.90;;;14.90;99.90;;;;;;4846011;29;20079;-78
2023/10/02 00:50:20;;;;;;;5.63;3.30;;;14.90;99.90;;;;;;4846732;29;20441;-77
2023/10/02 00:53:03;;;;;;;6.78;3.80;;;14.90;99.90;;;;;;4847573;29;20037;-76
2023/10/02 00:55:33;;;;;;;6.57;3.50;;;15.00;99.90;;;;;;4835202;29;20022;-77
2023/10/02 00:58:04;;;;;;;8.90;2.93;;;15.00;99.90;;;;;;4861034;29;20037;-77
2023/10/02 01:00:36;;;;;;;5.67;2.77;;;15.10;99.90;;;;;;4845459;29;20136;-77
2023/10/02 01:03:08;;;;;;;5.50;2.65;;;15.00;99.90;;;;;;4841630;29;20034;-77
2023/10/02 01:05:41;;;;;;;7.25;2.88;;;15.00;99.90;;;;;;4844731;29;20033;-78
2023/10/02 01:11:04;;;;;;;5.03;2.70;;;14.90;99.90;;;;;;4844549;29;20063;-78
2023/10/02 01:13:35;;;;;;;6.28;2.80;;;14.80;99.90;;;;;;4846896;29;20840;-77
2023/10/02 01:16:07;;;;;;;6.10;3.20;;;14.80;99.90;;;;;;4845332;29;20064;-78
2023/10/02 01:18:37;;;;;;;8.63;2.60;;;14.80;99.90;;;;;;4859847;29;20033;-78
2023/10/02 01:21:18;;;;;;;4.95;2.33;;;14.80;99.90;;;;;;4846304;29;20448;-77
2023/10/02 01:24:09;;;;;;;7.32;2.40;;;14.80;99.90;;;;;;4846196;29;20127;-77
2023/10/02 01:26:41;;;;;;;5.38;2.47;;;14.70;99.90;;;;;;4844113;29;20057;-77
2023/10/02 01:29:10;;;;;;;6.10;3.00;;;14.70;99.90;;;;;;4846862;29;20394;-77
2023/10/02 01:31:51;;;;;;;4.82;2.63;;;14.70;99.90;;;;;;4839217;29;20069;-77
2023/10/02 01:34:33;;;;;;;4.82;2.72;;;14.70;99.90;;;;;;4837811;29;20033;-77
2023/10/02 01:37:00;;;;;;;;;;;14.70;99.90;;;;;;4842875;29;20061;-77
2023/10/02 01:39:26;;;;;;;4.32;2.60;;;14.70;99.90;;;;;;4845101;29;19931;-76
2023/10/02 01:41:54;;;;;;;5.88;2.60;;;14.70;99.90;;;;;;4858401;29;20933;-77
2023/10/02 01:44:22;;;;;;;8.23;2.92;;;14.70;99.90;;;;;;4860061;29;20034;-76
2023/10/02 01:46:52;;;;;;;6.07;2.60;;;14.70;99.90;;;;;;4859214;29;20564;-77
2023/10/02 01:49:25;;;;;;;4.47;2.78;;;14.70;99.90;;;;;;4840150;29;20452;-77
2023/10/02 01:51:55;;;;;;;5.07;3.20;;;14.70;99.90;;;;;;4853861;29;20411;-77
2023/10/02 01:54:22;;;;;;;4.93;3.45;;;14.70;99.90;;;;;;4845713;29;20055;-77
2023/10/02 01:56:48;;;;;;;6.07;3.35;;;14.70;99.90;;;;;;4846312;29;20040;-76
2023/10/02 01:59:19;;;;;;;5.68;2.75;;;14.70;99.90;;;;;;4841422;29;20078;-77
2023/10/02 02:01:51;;;;;;;5.03;2.40;;;14.70;99.90;;;;;;4844459;29;20192;-77
2023/10/02 02:04:21;;;;;;;5.55;2.72;;;14.60;99.90;;;;;;4845091;29;20403;-77
2023/10/02 02:06:55;;;;;;;5.43;3.03;;;14.60;99.90;;;;;;4858520;29;20037;-77
2023/10/02 02:09:26;;;;;;;5.72;2.70;;;14.50;99.90;;;;;;4844974;29;20173;-77
2023/10/02 02:12:07;;;;;;;7.05;2.33;;;14.50;99.90;;;;;;4842938;29;20045;-77
2023/10/02 02:14:32;;;;;;;4.20;2.40;;;14.50;99.90;;;;;;4858348;29;20428;-76
2023/10/02 02:16:59;;;;;;;5.65;2.80;;;14.50;99.90;;;;;;4845619;29;20052;-77
2023/10/02 02:19:25;;;;;;;6.53;2.80;;;14.50;99.90;;;;;;4843471;29;20986;-78
2023/10/02 02:21:51;;;;;;;6.28;3.00;;;14.50;99.90;;;;;;4843091;29;20125;-77
2023/10/02 02:24:17;;;;;;;4.70;2.85;;;14.40;99.90;;;;;;4843456;29;20030;-77
2023/10/02 02:26:43;;;;;;;7.32;3.35;;;14.40;99.90;;;;;;4843910;29;20523;-76
2023/10/02 02:29:26;;;;;;;5.53;3.28;;;14.40;99.90;;;;;;4844638;29;20037;-77
2023/10/02 02:31:54;;;;;;;6.10;3.20;;;14.50;99.90;;;;;;4845274;29;20041;-77
2023/10/02 02:34:23;;;;;;;9.25;3.00;;;14.50;99.90;;;;;;4844516;29;20037;-77
2023/10/02 02:36:50;;;;;;;7.45;3.08;;;14.50;99.90;;;;;;4859047;29;20140;-77
2023/10/02 02:39:18;;;;;;;7.68;2.90;;;14.50;99.90;;;;;;4847220;29;20155;-77
2023/10/02 02:41:46;;;;;;;5.30;3.20;;;14.50;99.90;;;;;;4860633;29;20061;-78
2023/10/02 02:46:59;;;;;;;5.03;2.40;;;14.40;99.90;;;;;;4849210;29;21027;-77
2023/10/02 02:49:29;;;;;;;5.40;2.70;;;14.40;99.90;;;;;;4844776;29;20034;-76
2023/10/02 02:51:58;;;;;;;6.07;2.75;;;14.40;99.90;;;;;;4848834;29;20547;-76
2023/10/02 02:54:25;;;;;;;5.25;2.78;;;14.40;99.90;;;;;;4828452;29;20996;-77
2023/10/02 02:57:00;;;;;;;5.07;2.45;;;14.40;99.90;;;;;;4838914;29;20435;-77
2023/10/02 02:59:27;;;;;;;4.10;2.33;;;14.40;99.90;;;;;;4845728;29;20057;-77
2023/10/02 03:02:08;;;;;;;4.88;2.70;;;14.50;99.90;;;;;;4846782;29;20051;-77
2023/10/02 03:04:36;;;;;;;3.85;2.22;;;14.50;99.90;;;;;;4833183;29;20034;-76
2023/10/02 03:07:09;;;;;;;4.82;2.40;;;14.50;99.90;;;;;;4847319;29;20044;-77
2023/10/02 03:09:35;;;;;;;5.90;2.65;;;14.40;99.90;;;;;;4847577;29;20026;-77
2023/10/02 03:12:05;;;;;;;6.60;2.97;;;14.40;99.90;;;;;;4844973;29;20049;-77
2023/10/02 03:14:34;;;;;;;5.72;3.30;;;14.40;99.90;;;;;;4862932;29;20036;-77
2023/10/02 03:17:22;;;;;;;14.90;7.20;;;14.40;99.90;;;;;;4848669;29;20891;-77
2023/10/02 03:19:45;;;;;;;15.20;7.13;;;14.40;99.90;;;;;;4844864;29;20524;-77
2023/10/02 03:22:11;;;;;;;12.20;6.55;;;14.40;99.90;;;;;;4860858;29;20041;-77
2023/10/02 03:24:39;;;;;;;13.77;7.40;;;14.50;99.90;;;;;;4843533;29;20120;-77
2023/10/02 03:27:08;;;;;;;15.23;7.70;;;14.50;99.90;;;;;;4844663;29;20410;-77
2023/10/02 03:29:34;;;;;;;15.18;7.40;;;14.60;99.90;;;;;;4862497;29;20025;-77
2023/10/02 03:32:04;;;;;;;12.65;6.97;;;14.60;99.90;;;;;;4846419;29;20037;-77
2023/10/02 03:34:34;;;;;;;15.67;7.73;;;14.60;99.90;;;;;;4848340;29;20033;-77
2023/10/02 03:37:13;;;;;;;13.15;7.43;;;14.70;99.90;;;;;;4862159;29;20045;-77
2023/10/02 03:42:22;;;;;;;8.63;4.63;;;14.80;99.90;;;;;;4846307;29;20049;-78
2023/10/02 03:44:54;;;;;;;8.30;4.03;;;14.80;99.90;;;;;;4846102;29;20221;-77
2023/10/02 03:47:21;;;;;;;8.60;4.97;;;14.80;99.90;;;;;;4846831;29;20041;-78
2023/10/02 03:49:47;;;;;;;10.35;4.50;;;14.80;99.90;;;;;;4846048;29;20037;-77
2023/10/02 03:52:16;;;;;;;10.35;5.20;;;14.90;99.90;;;;;;4846672;29;20060;-75
2023/10/02 03:54:45;;;;;;;9.32;4.88;;;14.90;99.90;;;;;;4860787;29;20117;-75
2023/10/02 03:57:37;;;;;;;8.70;4.57;;;14.90;99.90;;;;;;4844507;29;20449;-76
2023/10/02 04:00:18;;;;;;;9.85;5.95;;;14.90;99.90;;;;;;4840644;29;20049;-76
2023/10/02 04:02:45;;;;;;;10.90;5.40;;;14.90;99.90;;;;;;4848013;29;20037;-77
2023/10/02 04:05:30;;;;;;;12.77;5.65;;;15.00;99.90;;;;;;4843765;29;20061;-76
2023/10/02 04:08:12;;;;;;;12.13;5.15;;;15.00;99.90;;;;;;4861510;29;20036;-78
2023/10/02 04:10:51;;;;;;;10.68;4.93;;;14.90;99.90;;;;;;4857001;29;20059;-77
2023/10/02 04:13:25;;;;;;;11.93;5.00;;;15.00;99.90;;;;;;4845746;29;20112;-77
2023/10/02 04:16:28;;;;;;;9.52;4.47;;;14.90;99.90;;;;;;4845603;29;20034;-77
2023/10/02 04:18:45;;;;;;;7.82;4.72;;;14.90;99.90;;;;;;4841279;29;20038;-77
2023/10/02 04:21:12;;;;;;;10.52;4.93;;;15.00;99.90;;;;;;4839098;29;20034;-77
2023/10/02 04:23:42;;;;;;;7.70;4.30;;;14.90;99.90;;;;;;4846830;29;20765;-77
2023/10/02 04:26:19;;;;;;;9.97;4.83;;;15.00;99.90;;;;;;4849379;29;20085;-77
2023/10/02 04:32:11;;;;;;;15.85;8.45;;;14.90;99.90;;;;;;4846596;29;20527;-77
2023/10/02 04:34:38;;;;;;;28.33;12.90;;;14.90;99.90;;;;;;4840127;29;20444;-77
2023/10/02 04:37:19;;;;;;;42.55;20.10;;;14.90;99.90;;;;;;4849807;29;20367;-77
2023/10/02 04:42:58;;;;;;;53.15;24.85;;;14.90;99.90;;;;;;4847085;29;20146;-76
2023/10/02 04:45:25;;;;;;;38.88;20.40;;;14.90;99.90;;;;;;4847066;29;20132;-77
2023/10/02 04:47:55;;;;;;;39.10;18.15;;;14.90;99.90;;;;;;4849740;29;20051;-77
2023/10/02 04:52:55;;;;;;;22.65;11.50;;;15.10;99.90;;;;;;4848117;29;20041;-77
2023/10/02 04:55:31;;;;;;;18.60;10.93;;;15.10;99.90;;;;;;4846153;29;20036;-77
2023/10/02 04:58:09;;;;;;;18.33;9.80;;;15.10;99.90;;;;;;4844718;29;20041;-77
2023/10/02 05:00:35;;;;;;;19.23;9.45;;;15.20;99.90;;;;;;4862537;29;20061;-77
2023/10/02 05:03:18;;;;;;;13.68;7.93;;;15.20;99.90;;;;;;4861626;29;20433;-77
2023/10/02 05:05:49;;;;;;;17.70;8.95;;;15.30;99.90;;;;;;4845462;29;20102;-77
2023/10/02 05:08:33;;;;;;;19.45;9.05;;;15.30;99.90;;;;;;4855874;29;20089;-77
2023/10/02 05:11:23;;;;;;;26.40;13.90;;;15.40;99.90;;;;;;4846057;29;20045;-77
2023/10/02 05:16:29;;;;;;;27.23;12.82;;;15.40;99.90;;;;;;4847920;29;20517;-77
2023/10/02 05:18:56;;;;;;;21.92;12.48;;;15.40;99.90;;;;;;4843540;29;20823;-77
2023/10/02 05:21:35;;;;;;;18.95;10.05;;;15.40;99.90;;;;;;4851381;29;20037;-76
2023/10/02 05:24:11;;;;;;;16.30;9.43;;;15.40;99.90;;;;;;4847466;29;20041;-77
2023/10/02 05:26:44;;;;;;;18.58;9.98;;;15.40;99.90;;;;;;4846865;29;20041;-76
2023/10/02 05:29:17;;;;;;;23.20;11.38;;;15.50;99.90;;;;;;4845000;29;20065;-77
2023/10/02 05:31:45;;;;;;;21.92;10.55;;;15.40;99.90;;;;;;4845319;29;20137;-76
2023/10/02 05:34:23;;;;;;;19.92;10.30;;;15.50;99.90;;;;;;4846871;29;20035;-77
2023/10/02 05:37:11;;;;;;;22.13;10.60;;;15.50;99.90;;;;;;4847691;29;20037;-77
2023/10/02 05:39:40;;;;;;;16.73;9.55;;;15.50;99.90;;;;;;4843605;29;20093;-76
2023/10/02 05:42:13;;;;;;;14.95;8.90;;;15.50;99.90;;;;;;4858725;29;20365;-76
2023/10/02 05:44:43;;;;;;;17.35;9.25;;;15.50;99.90;;;;;;4837830;29;20469;-78
2023/10/02 05:47:11;;;;;;;15.88;9.68;;;15.50;99.90;;;;;;4848378;29;20076;-77
2023/10/02 05:49:48;;;;;;;19.00;9.65;;;15.60;99.90;;;;;;4846743;29;20095;-77
2023/10/02 05:52:20;;;;;;;20.05;11.07;;;15.60;99.90;;;;;;4845896;29;20045;-77
2023/10/02 05:54:47;;;;;;;24.42;13.52;;;15.60;99.90;;;;;;4845123;29;20133;-77
2023/10/02 05:57:14;;;;;;;27.20;14.07;;;15.60;99.90;;;;;;4844895;29;20039;-77
2023/10/02 05:59:48;;;;;;;24.58;12.75;;;15.50;99.90;;;;;;4848366;29;20056;-78
2023/10/02 06:02:19;;;;;;;23.35;12.43;;;15.60;99.90;;;;;;4846793;29;20034;-76
2023/10/02 06:04:49;;;;;;;;;;;15.60;99.90;;;;;;4861521;29;20029;-77
2023/10/02 06:07:40;;;;;;;22.70;11.60;;;15.60;99.90;;;;;;4845315;29;19923;-76
2023/10/02 06:10:18;;;;;;;20.65;11.40;;;15.60;99.90;;;;;;4830031;29;20160;-75
2023/10/02 06:12:46;;;;;;;19.58;11.43;;;15.70;99.90;;;;;;4847532;29;20329;-75
2023/10/02 06:17:58;;;;;;;18.90;10.70;;;15.70;99.90;;;;;;4850971;29;20093;-77
2023/10/02 06:20:24;;;;;;;15.15;10.32;;;15.80;99.90;;;;;;4850186;29;20029;-77
2023/10/02 06:22:55;;;;;;;17.85;10.02;;;15.80;99.90;;;;;;4849842;29;20045;-77
2023/10/02 06:25:21;;;;;;;;;;;15.80;99.90;;;;;;4851638;29;20120;-77
2023/10/02 06:27:52;;;;;;;17.15;9.13;;;15.80;99.90;;;;;;4848704;29;20437;-78
2023/10/02 06:30:17;;;;;;;18.52;8.38;;;15.90;99.90;;;;;;4849991;29;20093;-76
2023/10/02 06:32:55;;;;;;;14.93;8.05;;;15.90;99.90;;;;;;4846158;29;20037;-77
2023/10/02 06:35:22;;;;;;;15.15;7.18;;;15.90;99.90;;;;;;4861152;29;20128;-77
2023/10/02 06:37:51;;;;;;;18.10;7.65;;;16.00;99.90;;;;;;4860269;29;20037;-78
2023/10/02 06:40:21;;;;;;;19.90;7.40;;;16.00;99.90;;;;;;4860776;29;20033;-76
2023/10/02 06:42:51;;;;;;;26.77;7.97;;;16.00;99.90;;;;;;4847480;29;20030;-77
2023/10/02 06:45:18;;;;;;;21.98;8.07;;;16.10;99.90;;;;;;4843921;29;20071;-77
2023/10/02 06:47:44;;;;;;;19.45;7.60;;;16.10;99.90;;;;;;4846090;29;20041;-78
2023/10/02 06:52:55;;;;;;;26.63;9.82;;;16.20;99.90;;;;;;4846105;29;20117;-78
2023/10/02 06:55:27;;;;;;;18.75;8.20;;;16.30;99.90;;;;;;4861812;29;20120;-82
2023/10/02 06:57:53;;;;;;;23.67;10.15;;;16.40;99.90;;;;;;4847909;29;20558;-81
2023/10/02 07:00:21;;;;;;;28.65;12.15;;;16.50;99.90;;;;;;4847908;29;20064;-81
2023/10/02 07:03:08;;;;;;;36.80;16.92;;;16.60;99.90;;;;;;4843987;29;20036;-81
2023/10/02 07:05:33;;;;;;;22.85;9.18;;;16.70;99.90;;;;;;4847124;29;20041;-81
2023/10/02 07:08:01;;;;;;;28.70;10.80;;;16.80;99.90;;;;;;4848432;29;20030;-80
2023/10/02 07:10:42;;;;;;;24.23;12.70;;;16.90;99.90;;;;;;4850277;29;20049;-80
2023/10/02 07:13:20;;;;;;;35.92;15.35;;;17.00;99.90;;;;;;4850785;29;20035;-80
2023/10/02 07:15:59;;;;;;;24.73;9.10;;;17.20;99.90;;;;;;4846794;29;20040;-80
2023/10/02 07:18:36;;;;;;;16.67;6.80;;;17.20;99.90;;;;;;4844913;29;20462;-78
2023/10/02 07:23:37;;;;;;;32.28;9.85;;;17.40;99.90;;;;;;5403623;23;20091;-78
2023/10/02 07:26:04;;;;;;;23.63;8.73;;;17.60;99.90;;;;;;4858609;29;20068;-77
2023/10/02 07:28:31;;;;;;;26.83;9.50;;;17.80;99.90;;;;;;4860433;29;20849;-77
2023/10/02 07:30:57;;;;;;;22.17;8.80;;;17.90;99.90;;;;;;4861856;29;20037;-78
2023/10/02 07:33:23;;;;;;;28.27;8.88;;;18.00;99.90;;;;;;4861988;29;20031;-77
2023/10/02 07:35:54;;;;;;;25.55;9.23;;;18.10;99.90;;;;;;4863816;29;20409;-77
2023/10/02 07:38:22;;;;;;;26.02;8.68;;;18.10;99.90;;;;;;4871454;29;20059;-76
2023/10/02 07:40:49;;;;;;;26.63;8.82;;;18.10;99.90;;;;;;4862599;29;20070;-77
2023/10/02 07:43:18;;;;;;;27.58;9.93;;;18.10;99.90;;;;;;4859894;29;20793;-77
2023/10/02 07:46:34;;;;;;;30.52;8.90;;;18.10;99.90;;;;;;4858630;29;20047;-76
2023/10/02 07:48:35;;;;;;;20.48;8.48;;;18.10;99.90;;;;;;4858958;29;21139;-77
2023/10/02 07:51:01;;;;;;;25.05;8.30;;;18.20;99.90;;;;;;4859087;29;20482;-77
2023/10/02 07:53:39;;;;;;;28.85;8.40;;;18.30;99.90;;;;;;4859758;29;20047;-77
2023/10/02 07:56:12;;;;;;;25.85;7.93;;;18.50;99.90;;;;;;4861781;29;20047;-76
2023/10/02 07:58:39;;;;;;;25.52;8.48;;;18.50;99.90;;;;;;4861836;29;20033;-76
2023/10/02 08:01:14;;;;;;;21.70;7.78;;;18.70;99.90;;;;;;4858809;29;20154;-77
2023/10/02 08:03:43;;;;;;;18.85;6.75;;;18.70;99.90;;;;;;4859076;29;20084;-77
2023/10/02 08:11:41;;;;;;;25.65;7.53;;;19.10;99.90;;;;;;4853214;29;20052;-77
2023/10/02 08:14:34;;;;;;;24.27;8.50;;;19.20;99.90;;;;;;4866227;29;20108;-78
2023/10/02 08:17:00;;;;;;;27.77;10.43;;;19.30;99.90;;;;;;4861984;29;20549;-77
2023/10/02 08:19:27;;;;;;;29.98;9.55;;;19.30;99.90;;;;;;4865972;29;20044;-77
2023/10/02 08:21:53;;;;;;;27.45;9.50;;;19.40;99.90;;;;;;4868641;29;20033;-76
2023/10/02 08:24:19;;;;;;;23.60;9.18;;;19.50;99.90;;;;;;4862061;29;20739;-76
2023/10/02 08:26:45;;;;;;;18.95;7.90;;;19.60;99.90;;;;;;4863812;29;20128;-76
2023/10/02 08:29:13;;;;;;;25.48;8.50;;;19.50;99.90;;;;;;4865269;29;20037;-77
2023/10/02 08:31:43;;;;;;;17.80;7.70;;;19.50;99.90;;;;;;4861237;29;20052;-77
2023/10/02 08:34:13;;;;;;;19.42;7.38;;;19.50;99.90;;;;;;4873767;29;20550;-77
2023/10/02 08:36:40;;;;;;;19.52;8.07;;;19.40;99.90;;;;;;4861943;29;20384;-77
2023/10/02 08:39:08;;;;;;;19.75;7.82;;;19.40;99.90;;;;;;4860695;29;20124;-77
2023/10/02 08:41:43;;;;;;;18.77;8.07;;;19.40;99.90;;;;;;4863870;29;20568;-76
2023/10/02 08:44:14;;;;;;;19.63;7.80;;;19.50;99.90;;;;;;4863146;29;21740;-77
2023/10/02 08:46:42;;;;;;;18.58;7.43;;;19.60;99.90;;;;;;4857902;29;20230;-78
2023/10/02 08:49:10;;;;;;;17.38;7.40;;;19.80;99.90;;;;;;4865914;29;20048;-77
2023/10/02 08:51:38;;;;;;;17.70;7.72;;;20.00;99.90;;;;;;4863394;29;20056;-77
2023/10/02 08:54:05;;;;;;;14.23;7.10;;;20.00;99.90;;;;;;4861264;29;20048;-77
2023/10/02 08:56:43;;;;;;;20.35;7.25;;;20.10;99.90;;;;;;4852629;29;20513;-77
2023/10/02 08:59:26;;;;;;;20.70;6.97;;;20.10;99.90;;;;;;4865985;29;20106;-77
2023/10/02 09:02:05;;;;;;;12.98;6.15;;;20.30;99.90;;;;;;4864045;29;20036;-78
2023/10/02 09:04:32;;;;;;;13.52;5.78;;;20.30;99.90;;;;;;4856948;29;20049;-77
2023/10/02 09:06:58;;;;;;;10.63;5.28;;;20.30;99.90;;;;;;4861622;29;20033;-77
2023/10/02 09:11:53;;;;;;;11.30;5.35;;;20.20;99.90;;;;;;4865357;29;20049;-76
2023/10/02 09:16:47;;;;;;;14.02;6.18;;;20.30;99.90;;;;;;4866780;29;20029;-77
2023/10/02 09:19:30;;;;;;;12.75;6.18;;;20.40;99.90;;;;;;4865258;29;20707;-77
2023/10/02 09:22:06;;;;;;;10.82;6.18;;;20.50;99.90;;;;;;4865003;29;20136;-77
2023/10/02 09:24:55;;;;;;;9.65;4.82;;;20.80;99.90;;;;;;4856962;29;20711;-77
2023/10/02 09:27:38;;;;;;;10.35;5.45;;;21.10;99.90;;;;;;4861454;29;20029;-76
2023/10/02 09:30:19;;;;;;;12.77;5.43;;;21.10;99.90;;;;;;4861800;29;20481;-77
2023/10/02 09:32:49;;;;;;;12.85;5.25;;;21.10;99.90;;;;;;4183777;29;10000374;-77
2023/10/02 09:35:32;;;;;;;9.05;4.93;;;21.10;99.90;;;;;;4851382;29;20064;-76
2023/10/02 09:38:10;;;;;;;8.77;5.07;;;21.10;99.90;;;;;;4862780;29;20060;-76
2023/10/02 09:43:32;;;;;;;8.77;4.72;;;21.10;99.90;;;;;;4851915;29;20417;-77
2023/10/02 09:46:00;;;;;;;9.82;4.97;;;21.10;99.90;;;;;;4852313;29;20029;-76
2023/10/02 09:49:19;;;;;;;11.52;4.88;;;21.10;99.90;;;;;;4866792;29;20041;-76
2023/10/02 09:51:33;;;;;;;9.30;4.85;;;21.10;99.90;;;;;;4863533;29;20049;-76
2023/10/02 09:54:28;;;;;;;12.05;4.97;;;21.20;99.90;;;;;;4858096;29;20029;-77
2023/10/02 09:57:06;;;;;;;8.43;4.38;;;21.20;99.90;;;;;;4860071;29;20045;-76
2023/10/02 09:59:48;;;;;;;8.82;4.82;;;21.30;99.90;;;;;;4865224;29;20076;-76
2023/10/02 10:05:22;;;;;;;9.88;5.85;;;21.20;99.90;;;;;;4859828;29;20065;-76
2023/10/02 10:08:28;;;;;;;10.70;5.50;;;21.10;99.90;;;;;;4862339;29;20055;-76
2023/10/02 10:10:48;;;;;;;9.10;5.38;;;21.10;99.90;;;;;;4867893;29;20490;-76
2023/10/02 10:13:34;;;;;;;11.15;5.35;;;21.00;99.90;;;;;;4861579;29;20021;-76
2023/10/02 10:16:31;;;;;;;10.98;5.72;;;21.00;99.90;;;;;;4865191;29;20036;-76
2023/10/02 10:21:56;;;;;;;8.88;3.40;;;21.10;99.90;;;;;;4849826;29;20537;-76
2023/10/02 10:24:51;;;;;;;12.82;5.80;;;21.10;99.90;;;;;;4864008;29;20072;-76
2023/10/02 10:27:42;;;;;;;12.75;5.60;;;21.10;99.90;;;;;;4848313;29;20041;-75
2023/10/02 10:30:24;;;;;;;7.10;4.05;;;21.10;99.90;;;;;;4865864;29;20052;-76
2023/10/02 10:35:49;;;;;;;9.80;4.85;;;21.00;99.90;;;;;;4869176;29;20041;-76
2023/10/02 10:41:30;;;;;;;12.63;6.20;;;21.30;99.90;;;;;;4865391;29;20338;-76
2023/10/02 10:43:56;;;;;;;17.77;6.27;;;21.70;99.90;;;;;;4862155;29;20131;-75
2023/10/02 10:46:24;;;;;;;13.00;6.65;;;21.90;99.90;;;;;;4862676;29;20120;-76
2023/10/02 10:49:15;;;;;;;12.55;5.38;;;22.10;99.90;;;;;;4870334;29;20048;-76
2023/10/02 10:51:42;;;;;;;;;;;22.30;99.90;;;;;;4878616;29;20048;-75
2023/10/02 10:54:25;;;;;;;14.65;6.35;;;22.60;99.90;;;;;;4866826;29;20393;-76
2023/10/02 10:57:19;;;;;;;16.88;7.60;;;22.70;99.90;;;;;;4865303;29;20044;-76
2023/10/02 10:59:45;;;;;;;16.58;6.95;;;22.40;99.90;;;;;;4863451;29;20036;-76
2023/10/02 11:02:16;;;;;;;17.08;7.95;;;22.20;99.90;;;;;;4864022;29;20037;-77
2023/10/02 11:04:49;;;;;;;13.60;7.18;;;22.20;99.90;;;;;;4866818;29;20033;-76
2023/10/02 11:07:25;;;;;;;13.10;7.72;;;22.20;99.90;;;;;;4864772;29;20553;-76
2023/10/02 11:10:18;;;;;;;13.38;7.82;;;22.20;99.90;;;;;;4850061;29;20030;-76
2023/10/02 11:12:59;;;;;;;12.90;5.68;;;22.10;99.90;;;;;;4861303;29;20025;-76
2023/10/02 11:18:21;;;;;;;17.17;8.50;;;21.90;99.90;;;;;;4868144;29;19919;-76
2023/10/02 11:20:55;;;;;;;14.60;7.47;;;21.90;99.90;;;;;;4858218;29;20120;-76
2023/10/02 11:23:40;;;;;;;15.23;8.15;;;21.80;99.90;;;;;;4858563;29;20047;-76
2023/10/02 11:26:15;;;;;;;11.23;5.53;;;21.90;99.90;;;;;;4859517;29;20140;-76
2023/10/02 11:28:49;;;;;;;13.60;6.60;;;22.00;99.90;;;;;;4855463;29;20035;-76
2023/10/02 11:31:32;;;;;;;10.00;5.32;;;22.10;99.90;;;;;;4857564;29;20131;-76
2023/10/02 11:34:11;;;;;;;9.45;5.65;;;22.30;99.90;;;;;;4858571;29;20063;-76
2023/10/02 11:36:39;;;;;;;10.38;4.68;;;22.40;99.90;;;;;;4859334;29;20095;-76
2023/10/02 11:39:08;;;;;;;9.63;5.28;;;22.50;99.90;;;;;;4859449;29;20029;-76
2023/10/02 11:41:35;;;;;;;12.85;5.60;;;22.60;99.90;;;;;;4855965;29;20028;-76
2023/10/02 11:44:02;;;;;;;10.35;5.45;;;22.60;99.90;;;;;;4853426;29;20444;-77
2023/10/02 11:46:28;;;;;;;11.30;5.93;;;22.80;99.90;;;;;;4855771;29;20156;-77
2023/10/02 11:48:54;;;;;;;11.20;5.70;;;23.00;99.90;;;;;;4853172;29;20033;-76
2023/10/02 11:51:20;;;;;;;9.48;5.50;;;23.20;99.90;;;;;;4854851;29;20052;-76
2023/10/02 11:53:45;;;;;;;12.30;5.50;;;23.30;99.90;;;;;;4852202;29;20045;-76
2023/10/02 11:56:11;;;;;;;11.80;4.90;;;23.40;99.90;;;;;;4853407;29;20044;-76
2023/10/02 11:58:36;;;;;;;10.25;4.40;;;23.30;99.90;;;;;;4859157;29;20114;-76
2023/10/02 12:01:06;;;;;;;11.57;5.57;;;23.30;99.90;;;;;;4855286;29;20102;-76
2023/10/02 12:03:36;;;;;;;10.07;4.72;;;23.20;99.90;;;;;;4858385;29;20029;-77
2023/10/02 12:06:02;;;;;;;10.90;4.13;;;23.20;99.90;;;;;;4856412;29;20087;-77
2023/10/02 12:08:28;;;;;;;13.13;4.63;;;23.20;99.90;;;;;;4858138;29;20029;-77
2023/10/02 12:10:54;;;;;;;9.90;4.50;;;23.20;99.90;;;;;;4857414;29;20156;-76
2023/10/02 12:13:20;;;;;;;9.13;4.57;;;22.90;99.90;;;;;;4858812;29;20395;-77
2023/10/02 12:15:47;;;;;;;7.05;4.03;;;22.90;99.90;;;;;;4860956;29;20037;-77
2023/10/02 12:18:12;;;;;;;12.63;4.68;;;22.90;99.90;;;;;;4862023;29;20145;-76
2023/10/02 12:20:42;;;;;;;6.80;4.10;;;22.80;99.90;;;;;;4858274;29;20121;-77
2023/10/02 12:23:09;;;;;;;12.10;4.55;;;22.70;99.90;;;;;;4860680;29;20114;-76
2023/10/02 12:25:36;;;;;;;7.57;3.83;;;22.70;99.90;;;;;;4861810;29;20033;-76
2023/10/02 12:28:02;;;;;;;11.43;5.10;;;22.70;99.90;;;;;;4861455;29;20089;-76
2023/10/02 12:30:28;;;;;;;9.88;4.15;;;22.70;99.90;;;;;;4864696;29;20440;-76
2023/10/02 12:32:54;;;;;;;10.70;5.10;;;22.80;99.90;;;;;;4866169;29;20063;-76
2023/10/02 12:35:20;;;;;;;8.85;4.47;;;22.90;99.90;;;;;;4867853;29;20138;-77
2023/10/02 12:37:46;;;;;;;8.07;4.00;;;23.00;99.90;;;;;;4856381;29;20041;-76
2023/10/02 12:40:18;;;;;;;9.07;4.40;;;23.00;99.90;;;;;;4851666;29;20068;-77
2023/10/02 12:42:44;;;;;;;11.57;4.18;;;23.00;99.90;;;;;;4856979;29;20532;-76
2023/10/02 12:45:11;;;;;;;11.52;4.55;;;23.10;99.90;;;;;;4851909;29;20129;-78
2023/10/02 12:47:38;;;;;;;9.00;4.32;;;23.10;99.90;;;;;;4857551;29;20061;-77
2023/10/02 12:50:10;;;;;;;12.27;4.53;;;23.00;99.90;;;;;;4855760;29;20041;-78
2023/10/02 12:52:36;;;;;;;12.52;4.80;;;22.80;99.90;;;;;;4856737;29;20483;-78
2023/10/02 12:55:02;;;;;;;9.90;5.15;;;22.60;99.90;;;;;;4853748;29;20044;-78
2023/10/02 12:57:28;;;;;;;12.07;5.03;;;22.50;99.90;;;;;;4854956;29;20038;-77
2023/10/02 12:59:54;;;;;;;15.43;4.97;;;22.50;99.90;;;;;;4857947;29;20108;-78
2023/10/02 13:02:19;;;;;;;12.15;4.82;;;22.60;99.90;;;;;;4861629;29;20213;-78
2023/10/02 13:04:45;;;;;;;12.70;5.22;;;22.70;99.90;;;;;;4859632;29;20211;-79
2023/10/02 13:07:10;;;;;;;13.05;4.88;;;22.90;99.90;;;;;;4861705;29;20050;-78
2023/10/02 13:09:36;;;;;;;11.85;4.22;;;23.10;99.90;;;;;;4862382;29;20029;-78
2023/10/02 13:12:02;;;;;;;9.10;4.03;;;23.30;99.90;;;;;;4866174;29;20045;-78
2023/10/02 13:14:28;;;;;;;7.70;3.80;;;23.30;99.90;;;;;;4866684;29;20029;-79
2023/10/02 13:16:54;;;;;;;9.75;4.05;;;23.50;99.90;;;;;;4868205;29;20060;-80
2023/10/02 13:19:20;;;;;;;9.82;4.63;;;23.70;99.90;;;;;;4869749;29;20129;-79
2023/10/02 13:21:51;;;;;;;8.98;4.70;;;24.00;99.90;;;;;;4866837;29;20033;-81
2023/10/02 13:24:17;;;;;;;10.10;5.10;;;24.30;99.90;;;;;;4880624;29;20515;-79
2023/10/02 13:26:44;;;;;;;10.55;4.68;;;24.30;99.90;;;;;;4888021;29;20032;-79
2023/10/02 13:29:09;;;;;;;8.32;3.70;;;24.40;99.90;;;;;;4870136;29;20044;-79
2023/10/02 13:31:35;;;;;;;11.93;4.82;;;24.50;99.90;;;;;;4868304;29;20045;-80
2023/10/02 13:34:05;;;;;;;10.65;4.90;;;24.40;99.90;;;;;;4864029;29;20809;-79
2023/10/02 13:36:31;;;;;;;9.15;3.90;;;24.40;99.90;;;;;;4866234;29;20182;-79
2023/10/02 13:38:57;;;;;;;10.77;4.25;;;24.50;99.90;;;;;;4868277;29;20119;-79
2023/10/02 13:41:25;;;;;;;12.50;4.50;;;24.50;99.90;;;;;;4868852;29;20308;-79
2023/10/02 13:43:55;;;;;;;9.88;4.05;;;24.50;99.90;;;;;;4868282;29;20044;-79
2023/10/02 13:46:22;;;;;;;11.57;4.57;;;24.30;99.90;;;;;;4857997;29;20040;-79
2023/10/02 13:48:54;;;;;;;9.90;4.90;;;24.20;99.90;;;;;;4877160;29;20506;-80
2023/10/02 13:51:21;;;;;;;9.65;3.97;;;24.00;99.90;;;;;;4875128;29;20049;-79
2023/10/02 13:53:47;;;;;;;12.65;4.57;;;24.00;99.90;;;;;;4867436;29;20029;-80
2023/10/02 13:56:19;;;;;;;14.57;6.15;;;23.90;99.90;;;;;;4859680;29;20424;-79
2023/10/02 13:58:50;;;;;;;14.80;6.55;;;23.70;99.90;;;;;;4865314;29;20622;-80
2023/10/02 14:01:20;;;;;;;14.85;6.90;;;23.60;99.90;;;;;;4867759;29;20077;-80